Time;durP1;ratioP1;P1;durP2;ratioP2;P2;SDS_P1;SDS_P2;PMS_P1;PMS_P2;Temp;Humidity;BMP_temperature;BMP_pressure;BME280_temperature;BME280_humidity;BME280_pressure;Samples;Min_cycle;Max_cycle;Signal;HPM_P1;HPM_P2
2022/03/26 00:00:43;;;;;;;27.30;14.77;;;7.20;66.30;;;;;;5031540;28;20202;-74
2022/03/26 00:03:12;;;;;;;29.23;14.53;;;7.20;66.90;;;;;;5027617;28;20211;-75
2022/03/26 00:05:43;;;;;;;31.27;15.33;;;7.20;67.20;;;;;;5032593;28;20214;-74
2022/03/26 00:08:13;;;;;;;28.00;14.53;;;7.20;67.20;;;;;;5032825;28;20691;-73
2022/03/26 00:10:41;;;;;;;30.10;15.23;;;7.10;67.60;;;;;;5029812;28;20231;-74
2022/03/26 00:13:10;;;;;;;27.37;14.33;;;7.10;67.70;;;;;;5030644;28;20198;-75
2022/03/26 00:15:38;;;;;;;28.27;14.93;;;7.20;67.20;;;;;;5031175;28;20206;-75
2022/03/26 00:18:07;;;;;;;25.40;14.07;;;7.10;66.80;;;;;;5032124;28;20208;-76
2022/03/26 00:20:36;;;;;;;25.37;13.63;;;7.20;66.60;;;;;;5028508;28;20240;-75
2022/03/26 00:23:06;;;;;;;26.23;13.30;;;7.20;66.90;;;;;;5030170;28;20204;-75
2022/03/26 00:25:34;;;;;;;26.03;14.83;;;7.20;66.90;;;;;;5031119;28;21668;-75
2022/03/26 00:28:02;;;;;;;26.80;14.90;;;7.20;67.50;;;;;;5033493;28;20214;-76
2022/03/26 00:30:31;;;;;;;26.23;14.20;;;7.10;67.50;;;;;;5030307;28;20211;-75
2022/03/26 00:32:59;;;;;;;28.87;14.37;;;7.10;67.60;;;;;;5027865;28;20238;-76
2022/03/26 00:35:27;;;;;;;27.67;14.37;;;7.10;67.70;;;;;;5026697;28;21432;-76
2022/03/26 00:37:56;;;;;;;26.73;14.20;;;7.10;67.30;;;;;;5030726;28;20197;-77
2022/03/26 00:40:26;;;;;;;25.83;14.33;;;7.10;67.20;;;;;;5029947;28;20211;-76
2022/03/26 00:42:54;;;;;;;27.03;13.60;;;7.10;66.90;;;;;;5033137;28;20642;-75
2022/03/26 00:45:24;;;;;;;25.80;13.67;;;7.10;66.60;;;;;;5033724;28;20222;-76
2022/03/26 00:47:52;;;;;;;27.17;13.37;;;7.00;67.50;;;;;;5031562;28;20286;-76
2022/03/26 00:50:20;;;;;;;25.93;13.47;;;7.00;67.00;;;;;;5030317;28;20660;-75
2022/03/26 00:52:49;;;;;;;30.00;14.37;;;7.00;67.50;;;;;;5034151;28;20202;-76
2022/03/26 00:55:17;;;;;;;25.20;13.57;;;6.90;67.50;;;;;;5036055;28;20205;-76
2022/03/26 00:57:47;;;;;;;28.33;13.63;;;6.90;67.50;;;;;;5035562;28;20882;-76
2022/03/26 01:00:16;;;;;;;28.43;13.80;;;6.90;67.60;;;;;;5037330;28;20216;-76
2022/03/26 01:02:44;;;;;;;26.17;13.70;;;6.90;67.70;;;;;;5034885;28;20205;-77
2022/03/26 01:05:13;;;;;;;27.77;14.00;;;6.90;67.50;;;;;;5036805;28;20228;-76
2022/03/26 01:07:41;;;;;;;29.00;14.33;;;6.80;67.70;;;;;;5037466;28;20209;-76
2022/03/26 01:10:10;;;;;;;23.00;12.70;;;6.80;67.50;;;;;;5037670;28;20215;-77
2022/03/26 01:12:38;;;;;;;26.43;12.43;;;6.80;68.00;;;;;;5034649;28;20205;-76
2022/03/26 01:15:09;;;;;;;28.97;13.93;;;6.70;68.00;;;;;;5038019;28;20201;-76
2022/03/26 01:17:37;;;;;;;23.30;13.93;;;6.70;68.00;;;;;;5033791;28;20198;-77
2022/03/26 01:20:08;;;;;;;25.50;12.53;;;6.70;68.40;;;;;;5034529;28;20260;-76
2022/03/26 01:22:36;;;;;;;23.47;13.63;;;6.70;68.70;;;;;;5034380;28;20276;-76
2022/03/26 01:25:05;;;;;;;26.30;12.20;;;6.70;68.30;;;;;;5031866;28;20227;-76
2022/03/26 01:27:34;;;;;;;26.97;12.37;;;6.70;68.60;;;;;;5034063;28;20194;-76
2022/03/26 01:30:02;;;;;;;25.10;13.27;;;6.70;68.30;;;;;;5035448;28;20440;-77
2022/03/26 01:32:33;;;;;;;27.03;13.00;;;6.70;68.60;;;;;;5032461;28;20200;-77
2022/03/26 01:35:01;;;;;;;22.80;12.67;;;6.70;68.60;;;;;;5035956;28;20646;-76
2022/03/26 01:37:30;;;;;;;25.23;12.40;;;6.60;69.60;;;;;;5033193;28;20204;-74
2022/03/26 01:39:58;;;;;;;23.03;12.67;;;6.60;69.70;;;;;;5035681;28;20207;-76
2022/03/26 01:42:26;;;;;;;23.73;12.47;;;6.60;69.20;;;;;;5035651;28;20211;-75
2022/03/26 01:44:55;;;;;;;24.80;12.80;;;6.60;69.10;;;;;;5033475;28;20251;-73
2022/03/26 01:47:23;;;;;;;21.20;12.13;;;6.60;68.90;;;;;;5035638;28;20629;-74
2022/03/26 01:49:53;;;;;;;21.93;12.23;;;6.60;69.00;;;;;;5037350;28;20919;-75
2022/03/26 01:52:22;;;;;;;20.83;12.20;;;6.60;69.00;;;;;;5035740;28;20207;-75
2022/03/26 01:54:50;;;;;;;23.10;11.97;;;6.70;68.90;;;;;;5037361;28;20202;-75
2022/03/26 01:57:19;;;;;;;22.40;11.87;;;6.70;68.80;;;;;;5033900;28;20241;-75
2022/03/26 01:59:47;;;;;;;23.30;13.07;;;6.70;69.20;;;;;;5036644;28;20193;-74
2022/03/26 02:02:16;;;;;;;22.63;11.53;;;6.70;69.00;;;;;;5033070;28;20212;-75
2022/03/26 02:04:44;;;;;;;21.50;11.50;;;6.70;69.10;;;;;;5031701;28;20196;-76
2022/03/26 02:07:14;;;;;;;19.93;11.00;;;6.70;69.40;;;;;;5033179;28;20277;-75
2022/03/26 02:09:43;;;;;;;20.73;10.80;;;6.70;69.40;;;;;;5034336;28;20228;-73
2022/03/26 02:12:25;;;;;;;21.50;11.60;;;6.70;69.20;;;;;;5032703;28;20196;-75
2022/03/26 02:14:55;;;;;;;21.50;11.07;;;6.70;69.20;;;;;;5036212;28;20699;-75
2022/03/26 02:17:23;;;;;;;21.43;11.53;;;6.70;69.10;;;;;;5034175;28;20206;-75
2022/03/26 02:19:53;;;;;;;24.03;10.90;;;6.70;69.40;;;;;;5035724;28;20929;-75
2022/03/26 02:22:23;;;;;;;17.87;10.47;;;6.70;69.60;;;;;;5036010;28;20196;-75
2022/03/26 02:24:51;;;;;;;21.97;11.13;;;6.70;69.80;;;;;;5034387;28;20230;-75
2022/03/26 02:27:21;;;;;;;21.27;11.03;;;6.70;69.80;;;;;;5033678;28;20215;-75
2022/03/26 02:29:51;;;;;;;22.30;11.13;;;6.70;70.20;;;;;;5035503;28;20307;-75
2022/03/26 02:32:20;;;;;;;27.60;11.30;;;6.60;70.30;;;;;;5031464;28;20211;-75
2022/03/26 02:34:50;;;;;;;22.50;11.17;;;6.70;70.10;;;;;;5034465;28;20211;-76
2022/03/26 02:37:35;;;;;;;19.90;11.20;;;6.70;70.10;;;;;;5034393;28;20197;-76
2022/03/26 02:40:07;;;;;;;25.30;10.37;;;6.70;70.40;;;;;;5035973;28;20208;-75
2022/03/26 02:42:36;;;;;;;17.80;10.77;;;6.60;71.40;;;;;;5032557;28;20261;-75
2022/03/26 02:45:06;;;;;;;18.27;9.47;;;6.60;70.20;;;;;;5033989;28;20199;-76
2022/03/26 02:47:35;;;;;;;19.73;10.40;;;6.60;70.20;;;;;;5036517;28;20780;-74
2022/03/26 02:50:04;;;;;;;17.33;9.83;;;6.70;70.30;;;;;;5032630;28;20212;-77
2022/03/26 02:52:32;;;;;;;17.77;9.87;;;6.70;71.30;;;;;;5036578;28;20194;-76
2022/03/26 02:55:02;;;;;;;17.60;9.77;;;6.70;70.20;;;;;;5032743;28;20825;-75
2022/03/26 02:57:30;;;;;;;18.40;10.43;;;6.70;70.50;;;;;;5035246;28;20197;-75
2022/03/26 02:59:58;;;;;;;18.93;10.17;;;6.70;70.50;;;;;;5033535;28;20204;-76
2022/03/26 03:02:27;;;;;;;19.57;10.67;;;6.70;71.20;;;;;;5030755;28;20198;-76
2022/03/26 03:04:55;;;;;;;19.53;10.60;;;6.70;70.50;;;;;;5035085;28;20195;-75
2022/03/26 03:07:23;;;;;;;17.87;9.40;;;6.70;70.80;;;;;;5034306;28;20218;-76
2022/03/26 03:09:52;;;;;;;15.47;9.43;;;6.70;70.80;;;;;;5035583;28;20201;-74
2022/03/26 03:12:22;;;;;;;19.77;10.30;;;6.70;70.70;;;;;;5031752;28;20199;-76
2022/03/26 03:14:50;;;;;;;17.93;9.30;;;6.70;70.60;;;;;;5032106;28;20197;-76
2022/03/26 03:17:18;;;;;;;21.80;10.13;;;6.70;70.20;;;;;;5034133;28;20196;-75
2022/03/26 03:19:47;;;;;;;18.97;9.93;;;6.80;70.10;;;;;;5033579;28;20483;-75
2022/03/26 03:22:16;;;;;;;18.70;9.63;;;6.80;69.80;;;;;;5033003;28;20200;-75
2022/03/26 03:24:44;;;;;;;21.30;9.87;;;6.80;69.70;;;;;;5033037;28;20202;-75
2022/03/26 03:27:13;;;;;;;18.50;9.10;;;6.80;69.80;;;;;;5030825;28;20248;-74
2022/03/26 03:29:43;;;;;;;17.00;9.20;;;6.80;70.10;;;;;;5030880;28;20220;-74
2022/03/26 03:32:12;;;;;;;20.03;9.40;;;6.80;69.70;;;;;;5032958;28;20619;-75
2022/03/26 03:34:40;;;;;;;18.63;10.00;;;6.80;69.40;;;;;;5033100;28;20312;-73
2022/03/26 03:37:08;;;;;;;17.53;9.37;;;6.80;69.50;;;;;;5032672;28;20204;-75
2022/03/26 03:39:37;;;;;;;15.70;9.30;;;6.80;69.70;;;;;;5030298;28;20247;-74
2022/03/26 03:42:06;;;;;;;16.77;8.73;;;6.90;69.50;;;;;;5032559;28;20197;-76
2022/03/26 03:44:35;;;;;;;17.17;8.80;;;6.90;69.40;;;;;;5029354;28;20720;-75
2022/03/26 03:47:05;;;;;;;17.50;8.97;;;6.90;69.20;;;;;;5031542;28;20221;-74
2022/03/26 03:49:41;;;;;;;17.83;9.70;;;6.90;69.30;;;;;;5031348;28;20276;-75
2022/03/26 03:52:09;;;;;;;16.77;8.90;;;6.90;69.30;;;;;;5028515;28;20203;-75
2022/03/26 03:54:37;;;;;;;19.10;10.10;;;6.90;69.10;;;;;;5032741;28;20600;-75
2022/03/26 03:57:06;;;;;;;16.77;8.77;;;6.90;69.30;;;;;;5034399;28;20622;-74
2022/03/26 03:59:35;;;;;;;18.20;9.50;;;6.90;69.30;;;;;;5028072;28;20202;-75
2022/03/26 04:02:05;;;;;;;16.00;9.13;;;6.90;69.10;;;;;;5032105;28;20783;-74
2022/03/26 04:04:34;;;;;;;16.70;9.60;;;6.90;69.10;;;;;;5030500;28;20571;-74
2022/03/26 04:07:02;;;;;;;17.23;9.10;;;6.90;69.30;;;;;;5033662;28;20748;-74
2022/03/26 04:09:30;;;;;;;17.37;9.27;;;6.90;69.10;;;;;;5032524;28;20206;-74
2022/03/26 04:11:59;;;;;;;19.10;9.67;;;6.90;69.00;;;;;;5030999;28;20209;-74
2022/03/26 04:14:28;;;;;;;17.60;9.90;;;7.00;69.10;;;;;;5033003;28;20218;-74
2022/03/26 04:16:56;;;;;;;19.20;8.93;;;7.00;69.00;;;;;;5031782;28;20205;-74
2022/03/26 04:19:26;;;;;;;17.93;9.73;;;6.90;68.70;;;;;;5030715;28;20820;-75
2022/03/26 04:21:56;;;;;;;16.93;9.93;;;7.00;68.90;;;;;;5030129;28;20199;-75
2022/03/26 04:24:24;;;;;;;17.87;9.20;;;7.00;68.70;;;;;;5031413;28;20297;-75
2022/03/26 04:26:53;;;;;;;21.40;10.30;;;7.00;69.00;;;;;;5026049;28;20756;-75
2022/03/26 04:29:21;;;;;;;21.63;9.33;;;7.00;69.00;;;;;;5032410;28;20204;-75
2022/03/26 04:31:50;;;;;;;19.23;9.60;;;7.00;69.10;;;;;;5028223;28;20247;-75
2022/03/26 04:34:19;;;;;;;19.53;9.67;;;7.00;69.30;;;;;;5027952;28;20207;-75
2022/03/26 04:36:48;;;;;;;16.97;9.40;;;7.00;69.10;;;;;;5029478;28;20209;-75
2022/03/26 04:39:17;;;;;;;20.13;9.67;;;7.00;69.40;;;;;;5034003;28;20231;-74
2022/03/26 04:41:45;;;;;;;24.97;10.60;;;7.00;69.40;;;;;;5034351;28;20216;-75
2022/03/26 04:44:13;;;;;;;20.33;9.87;;;7.00;69.30;;;;;;5033190;28;20219;-75
2022/03/26 04:46:42;;;;;;;17.77;10.30;;;7.00;69.40;;;;;;5032009;28;20262;-74
2022/03/26 04:49:10;;;;;;;17.03;9.20;;;7.00;69.30;;;;;;5034968;28;20191;-76
2022/03/26 04:51:39;;;;;;;16.97;9.73;;;7.10;69.40;;;;;;5035079;28;20215;-75
2022/03/26 04:54:09;;;;;;;17.40;9.20;;;7.10;69.20;;;;;;5034373;28;20206;-74
2022/03/26 04:56:40;;;;;;;18.27;10.00;;;7.20;69.10;;;;;;5034682;28;20205;-74
2022/03/26 04:59:08;;;;;;;18.63;10.43;;;7.20;69.20;;;;;;5033182;28;20199;-74
2022/03/26 05:01:41;;;;;;;18.57;10.03;;;7.20;68.90;;;;;;5033051;28;20196;-75
2022/03/26 05:04:09;;;;;;;17.07;9.50;;;7.20;68.90;;;;;;5030433;28;20195;-74
2022/03/26 05:06:38;;;;;;;17.70;10.30;;;7.30;69.00;;;;;;5031093;28;20223;-74
2022/03/26 05:09:07;;;;;;;20.37;10.80;;;7.30;69.00;;;;;;5033662;28;20205;-75
2022/03/26 05:11:37;;;;;;;21.87;9.90;;;7.40;68.80;;;;;;5031821;28;20883;-74
2022/03/26 05:14:08;;;;;;;17.17;9.93;;;7.40;68.80;;;;;;5031932;28;20198;-75
2022/03/26 05:16:37;;;;;;;19.87;10.40;;;7.50;68.90;;;;;;5031865;28;20213;-76
2022/03/26 05:19:05;;;;;;;18.93;9.80;;;7.60;68.80;;;;;;5033381;28;20305;-73
2022/03/26 05:21:37;;;;;;;23.10;11.33;;;7.60;68.70;;;;;;5030177;28;20195;-75
2022/03/26 05:24:08;;;;;;;18.53;10.07;;;7.70;68.70;;;;;;5032683;28;20207;-73
2022/03/26 05:26:37;;;;;;;23.20;10.57;;;7.70;68.80;;;;;;5030631;28;20721;-75
2022/03/26 05:29:08;;;;;;;25.00;10.60;;;7.70;68.70;;;;;;5034532;28;20199;-74
2022/03/26 05:31:36;;;;;;;28.13;12.57;;;7.80;68.60;;;;;;5032769;28;20212;-74
2022/03/26 05:34:05;;;;;;;22.20;11.27;;;7.80;68.60;;;;;;5033490;28;20209;-74
2022/03/26 05:36:33;;;;;;;25.77;11.57;;;7.90;68.60;;;;;;5034571;28;20221;-74
2022/03/26 05:39:02;;;;;;;21.80;10.87;;;8.00;68.40;;;;;;5035763;28;20203;-73
2022/03/26 05:41:32;;;;;;;23.50;10.77;;;8.00;68.50;;;;;;5037031;28;20211;-75
2022/03/26 05:44:01;;;;;;;24.77;11.87;;;8.10;68.30;;;;;;5036428;28;20195;-74
2022/03/26 05:46:32;;;;;;;22.77;10.90;;;8.10;68.20;;;;;;5037383;28;20203;-76
2022/03/26 05:49:00;;;;;;;24.47;11.40;;;8.20;68.20;;;;;;5035074;28;21589;-74
2022/03/26 05:51:29;;;;;;;24.17;11.07;;;8.30;68.10;;;;;;5035056;28;20198;-74
2022/03/26 05:53:57;;;;;;;19.90;10.87;;;8.30;68.00;;;;;;5036923;28;20206;-75
2022/03/26 05:56:25;;;;;;;17.97;9.73;;;8.40;67.90;;;;;;5036535;28;20206;-75
2022/03/26 06:02:13;;;;;;;18.63;9.97;;;8.70;67.60;;;;;;5023853;28;20212;-76
2022/03/26 06:28:51;;;;;;;18.17;9.47;;;10.00;63.80;;;;;;4794219;29;21004;-77
2022/03/26 06:35:18;;;;;;;16.90;8.63;;;10.30;62.20;;;;;;4769644;29;20225;-76
2022/03/26 06:37:56;;;;;;;21.97;8.97;;;10.40;61.70;;;;;;4850838;28;20385;-76
2022/03/26 06:40:24;;;;;;;18.57;9.73;;;10.50;61.20;;;;;;4999518;28;20204;-77
2022/03/26 06:42:53;;;;;;;17.00;9.57;;;10.60;60.10;;;;;;5016082;28;20203;-77
2022/03/26 06:45:23;;;;;;;16.70;9.27;;;10.70;60.20;;;;;;5015675;28;20191;-77
2022/03/26 06:47:51;;;;;;;17.80;8.27;;;10.80;60.20;;;;;;5015006;28;20204;-78
2022/03/26 06:50:20;;;;;;;14.57;8.40;;;10.90;59.50;;;;;;5013478;28;20290;-78
2022/03/26 06:52:48;;;;;;;16.30;8.27;;;11.00;59.60;;;;;;5015259;28;20203;-77
2022/03/26 06:55:17;;;;;;;18.10;9.50;;;11.10;59.10;;;;;;5015608;28;20231;-76
2022/03/26 06:57:45;;;;;;;15.87;8.10;;;11.20;59.00;;;;;;5016806;28;20746;-78
2022/03/26 07:00:15;;;;;;;18.07;8.50;;;11.20;58.90;;;;;;5015075;28;20206;-78
2022/03/26 07:02:45;;;;;;;17.20;8.97;;;11.40;58.40;;;;;;5013535;28;20220;-78
2022/03/26 07:05:15;;;;;;;13.93;7.97;;;11.40;57.30;;;;;;5016705;28;20254;-77
2022/03/26 07:07:43;;;;;;;13.07;6.87;;;11.50;57.30;;;;;;5015912;28;20215;-77
2022/03/26 07:10:14;;;;;;;17.27;7.97;;;11.60;57.60;;;;;;5015204;28;20524;-77
2022/03/26 07:12:42;;;;;;;15.27;7.70;;;11.80;57.20;;;;;;5016427;28;20210;-75
2022/03/26 07:15:11;;;;;;;18.57;8.10;;;11.90;56.80;;;;;;5015128;28;20195;-79
2022/03/26 07:17:40;;;;;;;16.13;8.20;;;11.90;56.70;;;;;;5015617;28;20195;-76
2022/03/26 07:20:14;;;;;;;14.20;7.93;;;12.00;56.20;;;;;;5014491;28;20199;-78
2022/03/26 07:22:44;;;;;;;16.53;7.97;;;12.10;55.60;;;;;;5014203;28;20701;-78
2022/03/26 07:25:12;;;;;;;15.70;7.63;;;12.10;54.70;;;;;;5016056;28;21352;-77
2022/03/26 07:27:44;;;;;;;11.70;6.90;;;12.20;54.70;;;;;;5015931;28;20741;-77
2022/03/26 07:30:13;;;;;;;13.63;7.20;;;12.20;54.30;;;;;;5024209;28;20226;-77
2022/03/26 07:32:41;;;;;;;15.73;7.57;;;12.30;53.70;;;;;;5037228;28;20226;-78
2022/03/26 07:35:11;;;;;;;11.10;6.60;;;12.30;53.60;;;;;;5033276;28;20199;-78
2022/03/26 07:37:40;;;;;;;8.93;6.27;;;12.50;53.90;;;;;;5035506;28;20205;-77
2022/03/26 07:40:20;;;;;;;12.53;6.63;;;12.50;53.60;;;;;;5034713;28;20205;-76
2022/03/26 07:42:49;;;;;;;11.57;6.47;;;12.60;53.50;;;;;;5033460;28;20221;-77
2022/03/26 07:45:18;;;;;;;12.23;6.10;;;12.70;52.80;;;;;;5035796;28;20741;-80
2022/03/26 07:47:46;;;;;;;13.83;6.30;;;12.70;52.90;;;;;;5035414;28;20230;-77
2022/03/26 07:50:16;;;;;;;11.10;6.10;;;12.80;53.20;;;;;;5034721;28;20195;-76
2022/03/26 07:52:44;;;;;;;12.60;6.90;;;12.90;50.80;;;;;;5036188;28;20214;-77
2022/03/26 07:55:12;;;;;;;10.10;5.87;;;12.90;50.70;;;;;;5034081;28;20207;-77
2022/03/26 07:57:41;;;;;;;16.87;6.40;;;13.00;51.30;;;;;;5034120;28;20675;-78
2022/03/26 08:00:10;;;;;;;14.33;6.33;;;13.10;51.80;;;;;;5037561;28;20206;-78
2022/03/26 08:02:38;;;;;;;10.60;6.00;;;13.10;51.80;;;;;;5031068;28;21811;-77
2022/03/26 08:05:07;;;;;;;17.70;6.97;;;13.20;51.90;;;;;;5030842;28;20411;-77
2022/03/26 08:07:37;;;;;;;10.17;6.03;;;13.20;51.80;;;;;;5032628;28;20203;-76
2022/03/26 08:10:06;;;;;;;12.90;6.30;;;13.30;51.50;;;;;;5034072;28;20223;-76
2022/03/26 08:12:35;;;;;;;8.27;5.33;;;13.40;51.30;;;;;;4982288;28;20196;-77
2022/03/26 08:15:06;;;;;;;12.53;6.30;;;13.50;51.70;;;;;;5034468;28;20208;-78
2022/03/26 08:17:35;;;;;;;11.90;6.40;;;13.60;52.10;;;;;;5033075;28;20705;-77
2022/03/26 08:20:07;;;;;;;10.40;5.90;;;13.60;51.30;;;;;;5034043;28;20230;-77
2022/03/26 08:22:38;;;;;;;9.10;5.67;;;13.70;50.20;;;;;;5033076;28;20195;-77
2022/03/26 08:25:09;;;;;;;13.10;5.63;;;13.70;49.70;;;;;;5035271;28;20731;-78
2022/03/26 08:27:39;;;;;;;8.30;5.20;;;13.70;49.20;;;;;;5031023;28;20203;-77
2022/03/26 08:30:14;;;;;;;10.63;5.97;;;13.80;49.10;;;;;;5030002;28;20227;-77
2022/03/26 08:32:42;;;;;;;15.23;6.23;;;13.80;48.40;;;;;;5033261;28;22492;-77
2022/03/26 08:35:12;;;;;;;12.53;5.77;;;13.90;49.00;;;;;;5032227;28;20214;-78
2022/03/26 08:37:42;;;;;;;11.40;5.43;;;13.90;49.50;;;;;;5033119;28;20198;-78
2022/03/26 08:40:12;;;;;;;13.63;6.33;;;14.00;49.30;;;;;;5034089;28;20202;-78
2022/03/26 08:42:40;;;;;;;10.47;5.60;;;14.00;49.40;;;;;;5032914;28;20212;-78
2022/03/26 08:45:09;;;;;;;10.43;5.37;;;14.20;49.60;;;;;;5034647;28;20829;-78
2022/03/26 08:47:38;;;;;;;11.63;6.10;;;14.20;48.80;;;;;;5031433;28;20235;-78
2022/03/26 08:50:08;;;;;;;8.57;4.83;;;14.30;48.40;;;;;;5032494;28;20214;-79
2022/03/26 08:52:37;;;;;;;10.37;5.77;;;14.40;49.20;;;;;;5035193;28;20191;-78
2022/03/26 08:55:08;;;;;;;10.10;5.80;;;14.40;48.60;;;;;;5033900;28;20241;-78
2022/03/26 08:57:36;;;;;;;11.50;5.43;;;14.50;47.70;;;;;;5027236;28;20210;-77
2022/03/26 09:00:06;;;;;;;13.67;5.70;;;14.50;48.10;;;;;;5031988;28;20228;-77
2022/03/26 09:02:35;;;;;;;10.03;5.43;;;14.60;47.60;;;;;;5030614;28;20214;-78
2022/03/26 09:05:04;;;;;;;18.63;5.30;;;14.60;48.10;;;;;;5032781;28;20657;-78
2022/03/26 09:07:32;;;;;;;8.67;4.50;;;14.70;48.60;;;;;;5030602;28;20195;-77
2022/03/26 09:10:01;;;;;;;11.27;5.43;;;14.80;47.70;;;;;;5032399;28;20221;-78
2022/03/26 09:12:31;;;;;;;8.67;4.60;;;14.80;47.80;;;;;;5030027;28;20845;-79
2022/03/26 09:14:59;;;;;;;8.23;4.87;;;14.90;47.80;;;;;;5035134;28;20202;-79
2022/03/26 09:17:28;;;;;;;13.23;5.40;;;15.00;47.90;;;;;;5038506;28;20191;-77
2022/03/26 09:19:56;;;;;;;11.43;5.67;;;15.00;46.40;;;;;;5034309;28;20195;-78
2022/03/26 09:22:25;;;;;;;9.13;4.90;;;15.10;47.10;;;;;;5035442;28;20194;-78
2022/03/26 09:24:53;;;;;;;15.18;5.97;;;15.10;46.20;;;;;;5032200;28;20623;-77
2022/03/26 09:27:21;;;;;;;11.13;5.20;;;15.30;45.90;;;;;;5036651;28;20195;-79
2022/03/26 09:29:52;;;;;;;12.20;4.60;;;15.30;45.70;;;;;;5035134;28;20229;-77
2022/03/26 09:32:20;;;;;;;9.70;4.97;;;15.40;46.90;;;;;;5035066;28;20315;-77
2022/03/26 09:34:49;;;;;;;13.70;4.80;;;15.50;46.30;;;;;;5037036;28;20213;-77
2022/03/26 09:37:18;;;;;;;10.67;5.20;;;15.60;45.70;;;;;;5037489;28;20191;-81
2022/03/26 09:39:46;;;;;;;10.30;4.90;;;15.60;45.70;;;;;;5036789;28;20198;-78
2022/03/26 09:42:15;;;;;;;17.90;5.20;;;15.70;45.30;;;;;;5035781;28;20195;-79
2022/03/26 09:44:44;;;;;;;9.93;4.53;;;15.80;45.10;;;;;;5037880;28;20205;-78
2022/03/26 09:47:16;;;;;;;10.83;5.00;;;15.80;44.60;;;;;;5037441;28;20195;-78
2022/03/26 09:49:45;;;;;;;9.07;5.17;;;15.90;45.20;;;;;;5035802;28;20203;-77
2022/03/26 09:52:14;;;;;;;10.30;4.50;;;16.00;45.70;;;;;;5037261;28;20207;-78
2022/03/26 09:54:45;;;;;;;8.47;5.33;;;16.10;45.80;;;;;;5036639;28;20210;-78
2022/03/26 09:57:13;;;;;;;12.33;5.80;;;16.20;45.80;;;;;;5036924;28;20221;-76
2022/03/26 09:59:43;;;;;;;10.27;5.30;;;16.30;44.40;;;;;;5037868;28;21280;-78
2022/03/26 10:02:11;;;;;;;11.83;5.07;;;16.30;45.10;;;;;;5033910;28;20199;-79
2022/03/26 10:08:36;;;;;;;9.40;4.63;;;16.40;43.80;;;;;;5036657;28;20188;-77
2022/03/26 10:11:06;;;;;;;7.80;4.60;;;16.50;44.20;;;;;;5034293;28;20210;-78
2022/03/26 10:13:40;;;;;;;9.03;4.53;;;16.60;44.40;;;;;;5034598;28;20198;-79
2022/03/26 10:16:10;;;;;;;8.73;4.57;;;16.70;44.00;;;;;;5035206;28;20203;-77
2022/03/26 10:18:40;;;;;;;8.03;4.40;;;16.80;44.60;;;;;;5033969;28;20836;-77
2022/03/26 10:21:09;;;;;;;7.13;4.23;;;16.80;43.30;;;;;;5035255;28;20666;-78
2022/03/26 10:23:43;;;;;;;9.63;4.33;;;16.90;43.00;;;;;;5035436;28;20734;-77
2022/03/26 10:26:13;;;;;;;8.93;4.43;;;16.90;42.50;;;;;;5034680;28;20217;-78
2022/03/26 10:28:43;;;;;;;12.80;4.67;;;16.90;42.50;;;;;;5034279;28;20196;-76
2022/03/26 10:34:08;;;;;;;10.00;4.83;;;17.00;42.10;;;;;;5033398;28;20192;-76
2022/03/26 10:36:38;;;;;;;8.53;4.70;;;17.10;42.00;;;;;;5037344;28;20198;-77
2022/03/26 10:39:15;;;;;;;12.70;5.17;;;17.10;42.40;;;;;;5034026;28;20206;-76
2022/03/26 10:41:44;;;;;;;11.13;5.18;;;17.20;42.00;;;;;;5034861;28;20448;-75
2022/03/26 10:44:14;;;;;;;8.17;4.80;;;17.30;41.70;;;;;;5035141;28;20199;-76
2022/03/26 10:46:45;;;;;;;17.37;5.37;;;17.30;40.90;;;;;;5035385;28;20215;-78
2022/03/26 10:49:25;;;;;;;8.00;4.70;;;17.30;41.40;;;;;;5037123;28;20241;-76
2022/03/26 10:51:54;;;;;;;8.57;4.53;;;17.20;40.70;;;;;;5034150;28;20545;-78
2022/03/26 10:54:31;;;;;;;10.30;5.20;;;17.40;41.50;;;;;;5036831;28;20204;-77
2022/03/26 10:57:00;;;;;;;8.37;4.60;;;17.40;40.10;;;;;;5035191;28;20196;-77
2022/03/26 10:59:30;;;;;;;7.73;4.57;;;17.40;40.30;;;;;;5037840;28;20254;-76
2022/03/26 11:01:59;;;;;;;10.97;4.70;;;17.60;41.20;;;;;;5033093;28;20690;-76
2022/03/26 11:04:28;;;;;;;8.27;4.60;;;17.60;40.50;;;;;;5033942;28;20945;-77
2022/03/26 11:06:58;;;;;;;10.60;4.97;;;17.70;41.10;;;;;;5036910;28;20656;-77
2022/03/26 11:09:27;;;;;;;7.63;4.50;;;17.80;40.50;;;;;;5036707;28;20678;-77
2022/03/26 11:11:58;;;;;;;11.80;5.03;;;17.80;40.10;;;;;;5034442;28;20903;-77
2022/03/26 11:14:33;;;;;;;12.00;5.67;;;17.90;39.90;;;;;;5034140;28;20206;-77
2022/03/26 11:17:18;;;;;;;7.87;5.07;;;18.00;39.50;;;;;;5033911;28;20380;-76
2022/03/26 11:20:06;;;;;;;9.97;5.37;;;18.00;38.70;;;;;;5036138;28;20222;-75
2022/03/26 11:22:51;;;;;;;8.57;4.93;;;18.10;39.30;;;;;;5033920;28;20284;-77
2022/03/26 11:25:45;;;;;;;11.30;5.20;;;18.10;38.80;;;;;;5036296;28;20199;-76
2022/03/26 11:28:30;;;;;;;9.93;5.40;;;18.10;38.60;;;;;;5033478;28;20194;-77
2022/03/26 11:31:06;;;;;;;11.63;4.30;;;18.30;39.20;;;;;;5035184;28;20237;-77
2022/03/26 11:33:37;;;;;;;11.70;5.23;;;18.30;38.70;;;;;;5035788;28;20783;-77
2022/03/26 11:36:08;;;;;;;13.00;5.57;;;18.40;39.00;;;;;;5035546;28;20203;-76
2022/03/26 11:38:39;;;;;;;11.90;5.30;;;18.40;38.40;;;;;;5036773;28;20195;-76
2022/03/26 11:41:09;;;;;;;9.17;5.10;;;18.50;38.40;;;;;;5032883;28;20777;-75
2022/03/26 11:43:56;;;;;;;9.60;5.40;;;18.60;38.50;;;;;;5035011;28;20308;-77
2022/03/26 11:52:31;;;;;;;12.30;5.27;;;18.70;37.80;;;;;;5032018;28;20708;-76
2022/03/26 11:55:24;;;;;;;11.03;5.27;;;18.80;38.60;;;;;;5035452;28;20234;-79
2022/03/26 11:58:15;;;;;;;11.67;5.63;;;18.90;38.10;;;;;;5035444;28;20210;-79
2022/03/26 12:00:59;;;;;;;11.40;5.47;;;18.90;37.60;;;;;;5032776;28;20182;-76
2022/03/26 12:03:31;;;;;;;8.50;5.40;;;18.90;37.10;;;;;;5033187;28;20206;-78
2022/03/26 12:08:54;;;;;;;9.33;5.67;;;19.10;37.60;;;;;;5036128;28;20955;-77
2022/03/26 12:11:25;;;;;;;11.00;5.47;;;19.10;37.30;;;;;;5032858;28;20213;-76
2022/03/26 12:14:01;;;;;;;12.20;5.63;;;19.20;37.60;;;;;;5033077;28;20202;-76
2022/03/26 12:16:56;;;;;;;10.10;5.70;;;19.20;36.90;;;;;;5033888;28;20255;-78
2022/03/26 12:19:41;;;;;;;11.97;5.67;;;19.30;36.80;;;;;;5029363;28;20282;-76
2022/03/26 12:22:20;;;;;;;13.33;5.33;;;19.40;37.00;;;;;;5034232;28;20194;-75
2022/03/26 12:24:49;;;;;;;9.17;5.70;;;19.50;36.40;;;;;;5034533;28;20202;-76
2022/03/26 12:27:19;;;;;;;11.40;5.67;;;19.60;36.00;;;;;;5031985;28;20195;-77
2022/03/26 12:29:47;;;;;;;8.57;5.67;;;19.70;35.80;;;;;;5034776;28;20208;-76
2022/03/26 12:32:19;;;;;;;11.33;5.50;;;19.70;36.00;;;;;;5032467;28;20215;-76
2022/03/26 12:34:54;;;;;;;15.03;5.97;;;19.80;36.20;;;;;;5034998;28;20197;-75
2022/03/26 12:37:24;;;;;;;10.47;6.07;;;19.90;36.00;;;;;;5033616;28;20652;-76
2022/03/26 12:39:53;;;;;;;10.13;5.10;;;20.00;36.00;;;;;;5032385;28;20205;-76
2022/03/26 12:42:23;;;;;;;11.87;6.00;;;20.00;36.00;;;;;;5032158;28;20849;-76
2022/03/26 12:44:52;;;;;;;9.03;5.07;;;20.10;35.60;;;;;;5033158;28;20205;-76
2022/03/26 12:47:24;;;;;;;8.63;5.50;;;20.10;35.50;;;;;;5032626;28;20198;-75
2022/03/26 12:49:55;;;;;;;8.70;5.43;;;20.20;34.90;;;;;;5030955;28;20202;-76
2022/03/26 12:52:27;;;;;;;21.30;5.97;;;20.30;34.20;;;;;;5030641;28;20218;-75
2022/03/26 12:55:00;;;;;;;14.73;6.97;;;20.40;34.90;;;;;;5035046;28;20210;-77
2022/03/26 12:58:56;;;;;;;12.67;6.30;;;20.50;34.80;;;;;;5033352;28;20200;-75
2022/03/26 13:00:41;;;;;;;9.23;5.55;;;20.60;34.00;;;;;;5033878;28;20210;-75
2022/03/26 13:03:16;;;;;;;11.82;6.68;;;20.70;33.60;;;;;;5015021;28;20873;-77
2022/03/26 13:05:45;;;;;;;11.57;5.72;;;20.80;33.20;;;;;;5030781;28;20203;-75
2022/03/26 13:08:15;;;;;;;14.60;6.85;;;21.00;34.00;;;;;;5034911;28;20202;-76
2022/03/26 13:10:45;;;;;;;8.27;5.57;;;21.10;33.70;;;;;;5033734;28;20206;-76
2022/03/26 13:13:17;;;;;;;8.63;5.57;;;21.30;33.90;;;;;;5032682;28;20197;-75
2022/03/26 13:16:01;;;;;;;14.27;7.13;;;21.60;34.20;;;;;;5032303;28;20203;-78
2022/03/26 13:18:40;;;;;;;8.60;5.65;;;21.90;33.50;;;;;;5032153;28;20186;-77
2022/03/26 13:21:08;;;;;;;11.80;6.47;;;22.10;33.40;;;;;;5033335;28;20227;-75
2022/03/26 13:23:37;;;;;;;7.65;4.90;;;22.50;33.00;;;;;;5033444;28;20285;-76
2022/03/26 13:26:07;;;;;;;13.18;7.72;;;22.70;31.90;;;;;;5033435;28;20195;-76
2022/03/26 13:28:39;;;;;;;25.08;13.95;;;23.00;32.50;;;;;;5030499;28;20195;-76
2022/03/26 13:31:20;;;;;;;15.57;9.85;;;23.20;32.00;;;;;;5033662;28;20210;-76
2022/03/26 13:33:51;;;;;;;18.48;10.10;;;23.70;30.70;;;;;;5033467;28;20226;-79
2022/03/26 13:36:30;;;;;;;10.77;5.88;;;24.20;29.60;;;;;;5030821;28;20198;-77
2022/03/26 13:39:02;;;;;;;10.00;6.80;;;24.60;28.20;;;;;;5032691;28;20195;-76
2022/03/26 13:41:30;;;;;;;12.27;6.70;;;25.10;28.60;;;;;;5034052;28;20210;-76
2022/03/26 13:44:00;;;;;;;13.20;7.13;;;25.60;28.00;;;;;;5030975;28;21082;-76